sensor_id;sensor_type;location;lat;lon;timestamp;temperature;humidity
14099;DHT22;7126;48.458;7.930;2023-04-03T00:00:56;8.20;99.90
14099;DHT22;7126;48.458;7.930;2023-04-03T00:03:22;8.20;99.90
14099;DHT22;7126;48.458;7.930;2023-04-03T00:05:47;8.20;99.90
14099;DHT22;7126;48.458;7.930;2023-04-03T00:08:13;8.20;99.90
14099;DHT22;7126;48.458;7.930;2023-04-03T00:10:39;8.20;99.90
14099;DHT22;7126;48.458;7.930;2023-04-03T00:13:05;8.20;99.90
14099;DHT22;7126;48.458;7.930;2023-04-03T00:15:32;8.20;99.90
14099;DHT22;7126;48.458;7.930;2023-04-03T00:17:57;8.10;99.90
14099;DHT22;7126;48.458;7.930;2023-04-03T00:20:23;8.10;99.90
14099;DHT22;7126;48.458;7.930;2023-04-03T00:22:49;8.10;99.90
14099;DHT22;7126;48.458;7.930;2023-04-03T00:25:14;8.10;99.90
14099;DHT22;7126;48.458;7.930;2023-04-03T00:27:40;8.10;99.90
14099;DHT22;7126;48.458;7.930;2023-04-03T00:30:07;8.00;99.90
14099;DHT22;7126;48.458;7.930;2023-04-03T00:32:33;8.00;99.90
14099;DHT22;7126;48.458;7.930;2023-04-03T00:34:59;8.00;99.90
14099;DHT22;7126;48.458;7.930;2023-04-03T00:37:25;8.00;99.90
14099;DHT22;7126;48.458;7.930;2023-04-03T00:39:51;8.00;99.90
14099;DHT22;7126;48.458;7.930;2023-04-03T00:42:16;8.00;99.90
14099;DHT22;7126;48.458;7.930;2023-04-03T00:47:13;8.00;99.90
14099;DHT22;7126;48.458;7.930;2023-04-03T00:49:40;8.00;99.90
14099;DHT22;7126;48.458;7.930;2023-04-03T00:52:10;8.10;99.90
14099;DHT22;7126;48.458;7.930;2023-04-03T00:54:37;8.10;99.90
14099;DHT22;7126;48.458;7.930;2023-04-03T00:57:06;8.10;99.90
14099;DHT22;7126;48.458;7.930;2023-04-03T00:59:35;8.00;99.90
14099;DHT22;7126;48.458;7.930;2023-04-03T01:02:03;8.00;99.90
14099;DHT22;7126;48.458;7.930;2023-04-03T01:04:37;8.00;99.90
14099;DHT22;7126;48.458;7.930;2023-04-03T01:07:12;8.00;99.90
14099;DHT22;7126;48.458;7.930;2023-04-03T01:09:40;8.00;99.90
14099;DHT22;7126;48.458;7.930;2023-04-03T01:14:45;8.00;99.90
14099;DHT22;7126;48.458;7.930;2023-04-03T01:25:35;8.00;99.90
14099;DHT22;7126;48.458;7.930;2023-04-03T01:28:03;7.90;99.90
14099;DHT22;7126;48.458;7.930;2023-04-03T01:30:32;7.90;99.90
14099;DHT22;7126;48.458;7.930;2023-04-03T01:32:58;7.90;99.90
14099;DHT22;7126;48.458;7.930;2023-04-03T01:35:24;7.90;99.90
14099;DHT22;7126;48.458;7.930;2023-04-03T01:37:50;7.90;99.90
14099;DHT22;7126;48.458;7.930;2023-04-03T01:40:16;7.80;99.90
14099;DHT22;7126;48.458;7.930;2023-04-03T01:42:41;7.80;99.90
14099;DHT22;7126;48.458;7.930;2023-04-03T01:45:07;7.80;99.90
14099;DHT22;7126;48.458;7.930;2023-04-03T01:47:33;7.90;99.90
14099;DHT22;7126;48.458;7.930;2023-04-03T01:49:59;7.80;99.90
14099;DHT22;7126;48.458;7.930;2023-04-03T01:52:24;7.90;99.90
14099;DHT22;7126;48.458;7.930;2023-04-03T01:54:50;7.90;99.90
14099;DHT22;7126;48.458;7.930;2023-04-03T01:57:16;7.90;99.90
14099;DHT22;7126;48.458;7.930;2023-04-03T01:59:41;7.80;99.90
14099;DHT22;7126;48.458;7.930;2023-04-03T02:02:07;7.80;99.90
14099;DHT22;7126;48.458;7.930;2023-04-03T02:04:33;7.80;99.90
14099;DHT22;7126;48.458;7.930;2023-04-03T02:06:58;7.90;99.90
14099;DHT22;7126;48.458;7.930;2023-04-03T02:09:24;7.80;99.90
14099;DHT22;7126;48.458;7.930;2023-04-03T02:11:49;7.80;99.90
14099;DHT22;7126;48.458;7.930;2023-04-03T02:14:15;7.80;99.90
14099;DHT22;7126;48.458;7.930;2023-04-03T02:16:41;7.90;99.90
14099;DHT22;7126;48.458;7.930;2023-04-03T02:19:06;7.80;99.90
14099;DHT22;7126;48.458;7.930;2023-04-03T02:21:32;7.80;99.90
14099;DHT22;7126;48.458;7.930;2023-04-03T02:23:58;7.80;99.90
14099;DHT22;7126;48.458;7.930;2023-04-03T02:26:23;7.70;99.90
14099;DHT22;7126;48.458;7.930;2023-04-03T02:28:49;7.80;99.90
14099;DHT22;7126;48.458;7.930;2023-04-03T02:31:15;7.80;99.90
14099;DHT22;7126;48.458;7.930;2023-04-03T02:33:40;7.70;99.90
14099;DHT22;7126;48.458;7.930;2023-04-03T02:36:07;7.60;99.90
14099;DHT22;7126;48.458;7.930;2023-04-03T02:38:33;7.60;99.90
14099;DHT22;7126;48.458;7.930;2023-04-03T02:41:03;7.70;99.90
14099;DHT22;7126;48.458;7.930;2023-04-03T02:43:29;7.70;99.90
14099;DHT22;7126;48.458;7.930;2023-04-03T02:45:55;7.60;99.90
14099;DHT22;7126;48.458;7.930;2023-04-03T02:48:21;7.60;99.90
14099;DHT22;7126;48.458;7.930;2023-04-03T02:50:47;7.60;99.90
14099;DHT22;7126;48.458;7.930;2023-04-03T02:53:12;7.70;99.90
14099;DHT22;7126;48.458;7.930;2023-04-03T02:55:38;7.60;99.90
14099;DHT22;7126;48.458;7.930;2023-04-03T02:58:03;7.60;99.90
14099;DHT22;7126;48.458;7.930;2023-04-03T03:00:29;7.50;99.90
14099;DHT22;7126;48.458;7.930;2023-04-03T03:02:55;7.50;99.90
14099;DHT22;7126;48.458;7.930;2023-04-03T03:05:20;7.60;99.90
14099;DHT22;7126;48.458;7.930;2023-04-03T03:07:46;7.70;99.90
14099;DHT22;7126;48.458;7.930;2023-04-03T03:10:12;7.60;99.90
14099;DHT22;7126;48.458;7.930;2023-04-03T03:12:37;7.60;99.90
14099;DHT22;7126;48.458;7.930;2023-04-03T03:15:03;7.60;99.90
14099;DHT22;7126;48.458;7.930;2023-04-03T03:17:29;7.60;99.90
14099;DHT22;7126;48.458;7.930;2023-04-03T03:19:54;7.50;99.90
14099;DHT22;7126;48.458;7.930;2023-04-03T03:22:20;7.50;99.90
14099;DHT22;7126;48.458;7.930;2023-04-03T03:24:45;7.50;99.90
14099;DHT22;7126;48.458;7.930;2023-04-03T03:27:11;7.50;99.90
14099;DHT22;7126;48.458;7.930;2023-04-03T03:29:37;7.50;99.90
14099;DHT22;7126;48.458;7.930;2023-04-03T03:32:03;7.50;99.90
14099;DHT22;7126;48.458;7.930;2023-04-03T03:34:29;7.50;99.90
14099;DHT22;7126;48.458;7.930;2023-04-03T03:36:54;7.50;99.90
14099;DHT22;7126;48.458;7.930;2023-04-03T03:39:20;7.60;99.90
14099;DHT22;7126;48.458;7.930;2023-04-03T03:41:46;7.60;99.90
14099;DHT22;7126;48.458;7.930;2023-04-03T03:44:12;7.60;99.90
14099;DHT22;7126;48.458;7.930;2023-04-03T03:46:38;7.60;99.90
14099;DHT22;7126;48.458;7.930;2023-04-03T03:49:03;7.60;99.90
14099;DHT22;7126;48.458;7.930;2023-04-03T03:51:29;7.50;99.90
14099;DHT22;7126;48.458;7.930;2023-04-03T03:53:55;7.50;99.90
14099;DHT22;7126;48.458;7.930;2023-04-03T03:56:20;7.50;99.90
14099;DHT22;7126;48.458;7.930;2023-04-03T03:58:46;7.50;99.90
14099;DHT22;7126;48.458;7.930;2023-04-03T04:01:12;7.40;99.90
14099;DHT22;7126;48.458;7.930;2023-04-03T04:03:37;7.40;99.90
14099;DHT22;7126;48.458;7.930;2023-04-03T04:06:03;7.30;99.90
14099;DHT22;7126;48.458;7.930;2023-04-03T04:08:29;7.30;99.90
14099;DHT22;7126;48.458;7.930;2023-04-03T04:10:55;7.30;99.90
14099;DHT22;7126;48.458;7.930;2023-04-03T04:13:21;7.30;99.90
14099;DHT22;7126;48.458;7.930;2023-04-03T04:15:46;7.20;99.90
14099;DHT22;7126;48.458;7.930;2023-04-03T04:18:12;7.20;99.90
14099;DHT22;7126;48.458;7.930;2023-04-03T04:20:37;7.30;99.90
14099;DHT22;7126;48.458;7.930;2023-04-03T04:23:03;7.30;99.90
14099;DHT22;7126;48.458;7.930;2023-04-03T04:25:28;7.20;99.90
14099;DHT22;7126;48.458;7.930;2023-04-03T04:27:54;7.30;99.90
14099;DHT22;7126;48.458;7.930;2023-04-03T04:30:19;7.20;99.90
14099;DHT22;7126;48.458;7.930;2023-04-03T04:32:45;7.20;99.90
14099;DHT22;7126;48.458;7.930;2023-04-03T04:35:11;7.20;99.90
14099;DHT22;7126;48.458;7.930;2023-04-03T04:37:36;7.20;99.90
14099;DHT22;7126;48.458;7.930;2023-04-03T04:40:02;7.20;99.90
14099;DHT22;7126;48.458;7.930;2023-04-03T04:42:28;7.20;99.90
14099;DHT22;7126;48.458;7.930;2023-04-03T04:44:54;7.20;99.90
14099;DHT22;7126;48.458;7.930;2023-04-03T04:47:19;7.20;99.90
14099;DHT22;7126;48.458;7.930;2023-04-03T04:49:45;7.20;99.90
14099;DHT22;7126;48.458;7.930;2023-04-03T04:52:12;7.10;99.90
14099;DHT22;7126;48.458;7.930;2023-04-03T04:54:38;7.00;99.90
14099;DHT22;7126;48.458;7.930;2023-04-03T04:57:03;7.00;99.90
14099;DHT22;7126;48.458;7.930;2023-04-03T04:59:29;6.90;99.90
14099;DHT22;7126;48.458;7.930;2023-04-03T05:01:55;6.90;99.90
14099;DHT22;7126;48.458;7.930;2023-04-03T05:04:20;6.80;99.90
14099;DHT22;7126;48.458;7.930;2023-04-03T05:06:46;6.80;99.90
14099;DHT22;7126;48.458;7.930;2023-04-03T05:09:12;6.80;99.90
14099;DHT22;7126;48.458;7.930;2023-04-03T05:11:37;6.80;99.90
14099;DHT22;7126;48.458;7.930;2023-04-03T05:14:03;6.80;99.90
14099;DHT22;7126;48.458;7.930;2023-04-03T05:16:32;6.80;99.90
14099;DHT22;7126;48.458;7.930;2023-04-03T05:18:57;6.80;99.90
14099;DHT22;7126;48.458;7.930;2023-04-03T05:21:23;6.80;99.90
14099;DHT22;7126;48.458;7.930;2023-04-03T05:23:51;6.80;99.90
14099;DHT22;7126;48.458;7.930;2023-04-03T05:26:17;6.80;99.90
14099;DHT22;7126;48.458;7.930;2023-04-03T05:28:42;6.80;99.90
14099;DHT22;7126;48.458;7.930;2023-04-03T05:31:08;6.90;99.90
14099;DHT22;7126;48.458;7.930;2023-04-03T05:33:34;6.90;99.90
14099;DHT22;7126;48.458;7.930;2023-04-03T05:36:06;6.90;99.90
14099;DHT22;7126;48.458;7.930;2023-04-03T05:38:32;7.00;99.90
14099;DHT22;7126;48.458;7.930;2023-04-03T05:40:58;7.10;99.90
14099;DHT22;7126;48.458;7.930;2023-04-03T05:43:23;7.00;99.90
14099;DHT22;7126;48.458;7.930;2023-04-03T05:45:49;7.00;99.90
14099;DHT22;7126;48.458;7.930;2023-04-03T05:48:15;7.00;99.90
14099;DHT22;7126;48.458;7.930;2023-04-03T05:50:41;7.00;99.90
14099;DHT22;7126;48.458;7.930;2023-04-03T05:53:07;7.00;99.90
14099;DHT22;7126;48.458;7.930;2023-04-03T05:55:36;7.10;99.90
14099;DHT22;7126;48.458;7.930;2023-04-03T05:58:01;7.10;99.90
14099;DHT22;7126;48.458;7.930;2023-04-03T06:00:27;7.10;99.90
14099;DHT22;7126;48.458;7.930;2023-04-03T06:02:53;7.20;99.90
14099;DHT22;7126;48.458;7.930;2023-04-03T06:05:18;7.20;99.90
14099;DHT22;7126;48.458;7.930;2023-04-03T06:07:44;7.20;99.90
14099;DHT22;7126;48.458;7.930;2023-04-03T06:10:11;7.30;99.90
14099;DHT22;7126;48.458;7.930;2023-04-03T06:12:37;7.30;99.90
14099;DHT22;7126;48.458;7.930;2023-04-03T06:15:03;7.40;99.90
14099;DHT22;7126;48.458;7.930;2023-04-03T06:17:29;7.40;99.90
14099;DHT22;7126;48.458;7.930;2023-04-03T06:19:55;7.40;99.90
14099;DHT22;7126;48.458;7.930;2023-04-03T06:22:23;7.50;99.90
14099;DHT22;7126;48.458;7.930;2023-04-03T06:24:50;7.40;99.90
14099;DHT22;7126;48.458;7.930;2023-04-03T06:27:16;7.50;99.90
14099;DHT22;7126;48.458;7.930;2023-04-03T06:29:42;7.60;99.90
14099;DHT22;7126;48.458;7.930;2023-04-03T06:32:08;7.60;99.90
14099;DHT22;7126;48.458;7.930;2023-04-03T06:34:34;7.70;99.90
14099;DHT22;7126;48.458;7.930;2023-04-03T06:37:00;7.70;99.90
14099;DHT22;7126;48.458;7.930;2023-04-03T06:39:26;7.80;99.90
14099;DHT22;7126;48.458;7.930;2023-04-03T06:41:52;7.70;99.90
14099;DHT22;7126;48.458;7.930;2023-04-03T06:44:18;7.80;99.90
14099;DHT22;7126;48.458;7.930;2023-04-03T06:46:44;7.80;99.90
14099;DHT22;7126;48.458;7.930;2023-04-03T06:49:11;7.80;99.90
14099;DHT22;7126;48.458;7.930;2023-04-03T06:51:37;7.80;99.90
14099;DHT22;7126;48.458;7.930;2023-04-03T06:54:04;7.90;99.90
14099;DHT22;7126;48.458;7.930;2023-04-03T06:56:30;8.00;99.90
14099;DHT22;7126;48.458;7.930;2023-04-03T06:58:56;8.10;99.90
14099;DHT22;7126;48.458;7.930;2023-04-03T07:01:29;8.20;99.90
14099;DHT22;7126;48.458;7.930;2023-04-03T07:03:56;8.10;99.90
14099;DHT22;7126;48.458;7.930;2023-04-03T07:06:21;7.90;99.90
14099;DHT22;7126;48.458;7.930;2023-04-03T07:08:47;7.80;99.90
14099;DHT22;7126;48.458;7.930;2023-04-03T07:11:14;7.70;99.90
14099;DHT22;7126;48.458;7.930;2023-04-03T07:13:40;7.70;99.90
14099;DHT22;7126;48.458;7.930;2023-04-03T07:16:07;7.80;99.90
14099;DHT22;7126;48.458;7.930;2023-04-03T07:18:33;7.80;99.90
14099;DHT22;7126;48.458;7.930;2023-04-03T07:20:58;7.90;99.90
14099;DHT22;7126;48.458;7.930;2023-04-03T07:23:24;8.00;99.90
14099;DHT22;7126;48.458;7.930;2023-04-03T07:25:51;8.10;99.90
14099;DHT22;7126;48.458;7.930;2023-04-03T07:28:18;8.10;99.90
14099;DHT22;7126;48.458;7.930;2023-04-03T07:30:50;8.10;99.90
14099;DHT22;7126;48.458;7.930;2023-04-03T07:33:18;8.10;99.90
14099;DHT22;7126;48.458;7.930;2023-04-03T07:35:44;8.20;99.90
14099;DHT22;7126;48.458;7.930;2023-04-03T07:38:10;8.40;99.90
14099;DHT22;7126;48.458;7.930;2023-04-03T07:40:37;8.40;99.90
14099;DHT22;7126;48.458;7.930;2023-04-03T07:43:02;8.30;99.90
14099;DHT22;7126;48.458;7.930;2023-04-03T07:45:28;8.00;99.90
14099;DHT22;7126;48.458;7.930;2023-04-03T07:47:54;8.10;99.90
14099;DHT22;7126;48.458;7.930;2023-04-03T07:50:20;8.20;99.90
14099;DHT22;7126;48.458;7.930;2023-04-03T07:52:46;8.40;99.90
14099;DHT22;7126;48.458;7.930;2023-04-03T07:55:11;8.50;99.90
14099;DHT22;7126;48.458;7.930;2023-04-03T07:57:37;8.60;99.90
14099;DHT22;7126;48.458;7.930;2023-04-03T08:00:04;8.70;99.90
14099;DHT22;7126;48.458;7.930;2023-04-03T08:02:30;8.70;99.90
14099;DHT22;7126;48.458;7.930;2023-04-03T08:04:57;8.70;99.90
14099;DHT22;7126;48.458;7.930;2023-04-03T08:07:23;8.70;99.90
14099;DHT22;7126;48.458;7.930;2023-04-03T08:09:49;8.70;99.90
14099;DHT22;7126;48.458;7.930;2023-04-03T08:12:14;8.70;99.90
14099;DHT22;7126;48.458;7.930;2023-04-03T08:14:40;8.80;99.90
14099;DHT22;7126;48.458;7.930;2023-04-03T08:17:06;8.70;99.90
14099;DHT22;7126;48.458;7.930;2023-04-03T08:19:34;8.80;99.90
14099;DHT22;7126;48.458;7.930;2023-04-03T08:22:00;9.00;99.90
14099;DHT22;7126;48.458;7.930;2023-04-03T08:24:28;9.00;99.90
14099;DHT22;7126;48.458;7.930;2023-04-03T08:26:54;8.80;99.90
14099;DHT22;7126;48.458;7.930;2023-04-03T08:29:20;8.90;99.90
14099;DHT22;7126;48.458;7.930;2023-04-03T08:31:46;9.00;99.90
14099;DHT22;7126;48.458;7.930;2023-04-03T08:34:13;9.10;99.90
14099;DHT22;7126;48.458;7.930;2023-04-03T08:36:39;9.20;99.90
14099;DHT22;7126;48.458;7.930;2023-04-03T08:39:05;9.40;99.90
14099;DHT22;7126;48.458;7.930;2023-04-03T08:41:33;9.60;99.90
14099;DHT22;7126;48.458;7.930;2023-04-03T08:44:19;9.60;99.90
14099;DHT22;7126;48.458;7.930;2023-04-03T08:49:42;9.10;99.90
14099;DHT22;7126;48.458;7.930;2023-04-03T08:52:36;9.00;99.90
14099;DHT22;7126;48.458;7.930;2023-04-03T08:55:24;8.90;99.90
14099;DHT22;7126;48.458;7.930;2023-04-03T08:58:01;9.00;99.90
14099;DHT22;7126;48.458;7.930;2023-04-03T09:00:30;9.00;99.90
14099;DHT22;7126;48.458;7.930;2023-04-03T09:02:56;9.10;99.90
14099;DHT22;7126;48.458;7.930;2023-04-03T09:05:29;9.20;99.90
14099;DHT22;7126;48.458;7.930;2023-04-03T09:08:01;9.40;99.90
14099;DHT22;7126;48.458;7.930;2023-04-03T09:10:30;9.70;99.90
14099;DHT22;7126;48.458;7.930;2023-04-03T09:16:16;9.90;99.90
14099;DHT22;7126;48.458;7.930;2023-04-03T09:18:48;10.00;99.90
14099;DHT22;7126;48.458;7.930;2023-04-03T09:21:23;10.10;99.90
14099;DHT22;7126;48.458;7.930;2023-04-03T09:23:52;10.20;99.90
14099;DHT22;7126;48.458;7.930;2023-04-03T09:26:28;10.30;99.90
14099;DHT22;7126;48.458;7.930;2023-04-03T09:28:57;10.40;99.90
14099;DHT22;7126;48.458;7.930;2023-04-03T09:31:27;10.60;99.90
14099;DHT22;7126;48.458;7.930;2023-04-03T09:33:58;10.90;99.90
14099;DHT22;7126;48.458;7.930;2023-04-03T09:36:57;11.00;99.90
14099;DHT22;7126;48.458;7.930;2023-04-03T09:39:26;10.80;99.90
14099;DHT22;7126;48.458;7.930;2023-04-03T09:42:05;10.60;99.90
14099;DHT22;7126;48.458;7.930;2023-04-03T09:44:32;10.30;99.90
14099;DHT22;7126;48.458;7.930;2023-04-03T09:46:58;10.20;99.90
14099;DHT22;7126;48.458;7.930;2023-04-03T09:49:24;10.30;99.90
14099;DHT22;7126;48.458;7.930;2023-04-03T09:51:50;10.50;99.90
14099;DHT22;7126;48.458;7.930;2023-04-03T09:54:35;10.50;99.90
14099;DHT22;7126;48.458;7.930;2023-04-03T09:57:12;10.60;99.90
14099;DHT22;7126;48.458;7.930;2023-04-03T10:00:00;10.50;99.90
14099;DHT22;7126;48.458;7.930;2023-04-03T10:02:34;10.60;99.90
14099;DHT22;7126;48.458;7.930;2023-04-03T10:05:00;10.80;99.90
14099;DHT22;7126;48.458;7.930;2023-04-03T10:07:33;10.90;99.90
14099;DHT22;7126;48.458;7.930;2023-04-03T10:10:19;11.00;99.90
14099;DHT22;7126;48.458;7.930;2023-04-03T10:12:46;11.20;99.90
14099;DHT22;7126;48.458;7.930;2023-04-03T10:15:16;11.50;99.90
14099;DHT22;7126;48.458;7.930;2023-04-03T10:17:58;11.50;99.90
14099;DHT22;7126;48.458;7.930;2023-04-03T10:20:37;11.30;99.90
14099;DHT22;7126;48.458;7.930;2023-04-03T10:25:47;11.20;99.90
14099;DHT22;7126;48.458;7.930;2023-04-03T10:28:36;11.10;99.90
14099;DHT22;7126;48.458;7.930;2023-04-03T10:39:18;11.10;99.90
14099;DHT22;7126;48.458;7.930;2023-04-03T10:50:29;10.90;99.90
14099;DHT22;7126;48.458;7.930;2023-04-03T10:53:07;10.90;99.90
14099;DHT22;7126;48.458;7.930;2023-04-03T10:55:51;11.10;99.90
14099;DHT22;7126;48.458;7.930;2023-04-03T10:58:29;11.10;99.90
14099;DHT22;7126;48.458;7.930;2023-04-03T11:00:59;11.10;99.90
14099;DHT22;7126;48.458;7.930;2023-04-03T11:03:38;11.10;99.90
14099;DHT22;7126;48.458;7.930;2023-04-03T11:06:09;11.20;99.90
14099;DHT22;7126;48.458;7.930;2023-04-03T11:08:44;11.20;99.90
14099;DHT22;7126;48.458;7.930;2023-04-03T11:11:40;11.20;99.90
14099;DHT22;7126;48.458;7.930;2023-04-03T11:14:13;11.40;99.90
14099;DHT22;7126;48.458;7.930;2023-04-03T11:16:45;11.60;99.90
14099;DHT22;7126;48.458;7.930;2023-04-03T11:19:22;11.60;99.90
14099;DHT22;7126;48.458;7.930;2023-04-03T11:27:44;11.60;99.90
14099;DHT22;7126;48.458;7.930;2023-04-03T11:30:33;11.70;99.90
14099;DHT22;7126;48.458;7.930;2023-04-03T11:33:36;11.60;99.90
14099;DHT22;7126;48.458;7.930;2023-04-03T11:36:24;11.60;99.90
14099;DHT22;7126;48.458;7.930;2023-04-03T11:38:54;11.60;99.90
14099;DHT22;7126;48.458;7.930;2023-04-03T11:41:29;11.30;99.90
14099;DHT22;7126;48.458;7.930;2023-04-03T11:44:23;11.30;99.90
14099;DHT22;7126;48.458;7.930;2023-04-03T11:47:00;11.50;99.90
14099;DHT22;7126;48.458;7.930;2023-04-03T11:52:55;10.90;99.90
14099;DHT22;7126;48.458;7.930;2023-04-03T12:26:48;12.20;99.90
14099;DHT22;7126;48.458;7.930;2023-04-03T12:29:27;12.10;99.90
14099;DHT22;7126;48.458;7.930;2023-04-03T12:48:54;11.40;99.90
14099;DHT22;7126;48.458;7.930;2023-04-03T12:51:42;11.30;99.90
14099;DHT22;7126;48.458;7.930;2023-04-03T12:54:18;11.30;99.90
14099;DHT22;7126;48.458;7.930;2023-04-03T12:56:44;11.40;99.90
14099;DHT22;7126;48.458;7.930;2023-04-03T12:59:25;11.50;99.90
14099;DHT22;7126;48.458;7.930;2023-04-03T13:01:56;11.70;99.90
14099;DHT22;7126;48.458;7.930;2023-04-03T13:04:22;11.60;99.90
14099;DHT22;7126;48.458;7.930;2023-04-03T13:06:49;11.30;99.90
14099;DHT22;7126;48.458;7.930;2023-04-03T13:09:26;11.10;99.90
14099;DHT22;7126;48.458;7.930;2023-04-03T13:12:13;11.20;99.90
14099;DHT22;7126;48.458;7.930;2023-04-03T13:14:39;11.20;99.90
14099;DHT22;7126;48.458;7.930;2023-04-03T13:17:13;11.20;99.90
14099;DHT22;7126;48.458;7.930;2023-04-03T13:19:39;11.10;99.90
14099;DHT22;7126;48.458;7.930;2023-04-03T13:25:15;10.90;99.90
14099;DHT22;7126;48.458;7.930;2023-04-03T13:27:42;10.90;99.90
14099;DHT22;7126;48.458;7.930;2023-04-03T13:30:35;10.90;99.90
14099;DHT22;7126;48.458;7.930;2023-04-03T13:33:04;10.90;99.90
14099;DHT22;7126;48.458;7.930;2023-04-03T13:35:36;11.00;99.90
14099;DHT22;7126;48.458;7.930;2023-04-03T13:38:24;11.10;99.90
14099;DHT22;7126;48.458;7.930;2023-04-03T13:40:53;11.30;99.90
14099;DHT22;7126;48.458;7.930;2023-04-03T13:43:25;11.30;99.90
14099;DHT22;7126;48.458;7.930;2023-04-03T13:48:26;11.20;99.90
14099;DHT22;7126;48.458;7.930;2023-04-03T13:50:53;11.10;99.90
14099;DHT22;7126;48.458;7.930;2023-04-03T13:53:20;11.20;99.90
14099;DHT22;7126;48.458;7.930;2023-04-03T13:56:23;11.20;99.90
14099;DHT22;7126;48.458;7.930;2023-04-03T13:59:23;11.30;99.90
14099;DHT22;7126;48.458;7.930;2023-04-03T14:02:39;11.40;99.90
14099;DHT22;7126;48.458;7.930;2023-04-03T14:05:00;11.40;99.90
14099;DHT22;7126;48.458;7.930;2023-04-03T14:07:30;11.40;99.90
14099;DHT22;7126;48.458;7.930;2023-04-03T14:09:56;11.30;99.90
14099;DHT22;7126;48.458;7.930;2023-04-03T14:12:42;11.30;99.90
14099;DHT22;7126;48.458;7.930;2023-04-03T14:15:18;11.30;99.90
14099;DHT22;7126;48.458;7.930;2023-04-03T14:17:45;11.20;99.90
14099;DHT22;7126;48.458;7.930;2023-04-03T14:20:20;11.20;99.90
14099;DHT22;7126;48.458;7.930;2023-04-03T14:22:47;11.20;99.90
14099;DHT22;7126;48.458;7.930;2023-04-03T14:25:14;11.20;99.90
14099;DHT22;7126;48.458;7.930;2023-04-03T14:27:43;11.10;99.90
14099;DHT22;7126;48.458;7.930;2023-04-03T14:30:15;10.90;99.90
14099;DHT22;7126;48.458;7.930;2023-04-03T14:32:41;10.80;99.90
14099;DHT22;7126;48.458;7.930;2023-04-03T14:35:07;10.90;99.90
14099;DHT22;7126;48.458;7.930;2023-04-03T14:37:33;10.80;99.90
14099;DHT22;7126;48.458;7.930;2023-04-03T14:40:00;10.60;99.90
14099;DHT22;7126;48.458;7.930;2023-04-03T14:42:30;10.40;99.90
14099;DHT22;7126;48.458;7.930;2023-04-03T14:44:57;10.40;99.90
14099;DHT22;7126;48.458;7.930;2023-04-03T14:47:25;10.50;99.90
14099;DHT22;7126;48.458;7.930;2023-04-03T14:49:53;10.60;99.90
14099;DHT22;7126;48.458;7.930;2023-04-03T14:52:30;10.70;99.90
14099;DHT22;7126;48.458;7.930;2023-04-03T14:54:57;10.70;99.90
14099;DHT22;7126;48.458;7.930;2023-04-03T14:57:27;10.80;99.90
14099;DHT22;7126;48.458;7.930;2023-04-03T14:59:53;10.70;99.90
14099;DHT22;7126;48.458;7.930;2023-04-03T15:02:33;10.60;99.90
14099;DHT22;7126;48.458;7.930;2023-04-03T15:05:01;10.50;99.90
14099;DHT22;7126;48.458;7.930;2023-04-03T15:07:31;10.30;99.90
14099;DHT22;7126;48.458;7.930;2023-04-03T15:09:58;10.30;99.90
14099;DHT22;7126;48.458;7.930;2023-04-03T15:12:25;10.20;99.90
14099;DHT22;7126;48.458;7.930;2023-04-03T15:14:50;10.20;99.90
14099;DHT22;7126;48.458;7.930;2023-04-03T15:17:21;10.50;99.90
14099;DHT22;7126;48.458;7.930;2023-04-03T15:19:47;10.70;99.90
14099;DHT22;7126;48.458;7.930;2023-04-03T15:22:15;10.80;99.90
14099;DHT22;7126;48.458;7.930;2023-04-03T15:24:42;10.90;99.90
14099;DHT22;7126;48.458;7.930;2023-04-03T15:27:08;10.80;99.90
14099;DHT22;7126;48.458;7.930;2023-04-03T15:29:34;10.70;99.90
14099;DHT22;7126;48.458;7.930;2023-04-03T15:32:00;10.60;99.90
14099;DHT22;7126;48.458;7.930;2023-04-03T15:34:26;10.50;99.90
14099;DHT22;7126;48.458;7.930;2023-04-03T15:36:52;10.50;99.90
14099;DHT22;7126;48.458;7.930;2023-04-03T15:39:18;10.50;99.90
14099;DHT22;7126;48.458;7.930;2023-04-03T15:41:44;10.50;99.90
14099;DHT22;7126;48.458;7.930;2023-04-03T15:44:10;10.50;99.90
14099;DHT22;7126;48.458;7.930;2023-04-03T15:46:37;10.40;99.90
14099;DHT22;7126;48.458;7.930;2023-04-03T15:49:04;10.10;99.90
14099;DHT22;7126;48.458;7.930;2023-04-03T15:51:30;10.10;99.90
14099;DHT22;7126;48.458;7.930;2023-04-03T15:53:55;10.10;99.90
14099;DHT22;7126;48.458;7.930;2023-04-03T15:56:21;10.10;99.90
14099;DHT22;7126;48.458;7.930;2023-04-03T15:58:46;10.20;99.90
14099;DHT22;7126;48.458;7.930;2023-04-03T16:01:12;10.40;99.90
14099;DHT22;7126;48.458;7.930;2023-04-03T16:03:40;10.60;99.90
14099;DHT22;7126;48.458;7.930;2023-04-03T16:06:13;10.50;99.90
14099;DHT22;7126;48.458;7.930;2023-04-03T16:08:39;10.60;99.90
14099;DHT22;7126;48.458;7.930;2023-04-03T16:11:05;10.60;99.90
14099;DHT22;7126;48.458;7.930;2023-04-03T16:13:31;10.60;99.90
14099;DHT22;7126;48.458;7.930;2023-04-03T16:15:58;10.40;99.90
14099;DHT22;7126;48.458;7.930;2023-04-03T16:18:23;10.30;99.90
14099;DHT22;7126;48.458;7.930;2023-04-03T16:20:49;10.20;99.90
14099;DHT22;7126;48.458;7.930;2023-04-03T16:23:15;10.00;99.90
14099;DHT22;7126;48.458;7.930;2023-04-03T16:25:40;9.80;98.90
14099;DHT22;7126;48.458;7.930;2023-04-03T16:28:11;9.70;99.90
14099;DHT22;7126;48.458;7.930;2023-04-03T16:30:37;9.80;99.90
14099;DHT22;7126;48.458;7.930;2023-04-03T16:33:02;10.00;99.90
14099;DHT22;7126;48.458;7.930;2023-04-03T16:35:28;10.30;99.90
14099;DHT22;7126;48.458;7.930;2023-04-03T16:37:54;10.50;99.90
14099;DHT22;7126;48.458;7.930;2023-04-03T16:40:20;10.70;99.90
14099;DHT22;7126;48.458;7.930;2023-04-03T16:42:45;10.80;99.90
14099;DHT22;7126;48.458;7.930;2023-04-03T16:45:11;10.70;99.90
14099;DHT22;7126;48.458;7.930;2023-04-03T16:47:37;10.60;99.90
14099;DHT22;7126;48.458;7.930;2023-04-03T16:50:03;10.50;99.90
14099;DHT22;7126;48.458;7.930;2023-04-03T16:52:28;10.40;99.90
14099;DHT22;7126;48.458;7.930;2023-04-03T16:54:54;10.30;99.90
14099;DHT22;7126;48.458;7.930;2023-04-03T16:57:22;10.10;99.90
14099;DHT22;7126;48.458;7.930;2023-04-03T16:59:50;9.80;99.50
14099;DHT22;7126;48.458;7.930;2023-04-03T17:02:15;9.70;99.90
14099;DHT22;7126;48.458;7.930;2023-04-03T17:07:09;9.60;99.90
14099;DHT22;7126;48.458;7.930;2023-04-03T17:09:34;9.50;99.90
14099;DHT22;7126;48.458;7.930;2023-04-03T17:12:00;9.40;99.90
14099;DHT22;7126;48.458;7.930;2023-04-03T17:14:26;9.40;99.90
14099;DHT22;7126;48.458;7.930;2023-04-03T17:16:52;9.40;99.90
14099;DHT22;7126;48.458;7.930;2023-04-03T17:19:18;9.40;99.90
14099;DHT22;7126;48.458;7.930;2023-04-03T17:21:44;9.40;99.90
14099;DHT22;7126;48.458;7.930;2023-04-03T17:24:11;9.50;99.90
14099;DHT22;7126;48.458;7.930;2023-04-03T17:26:39;9.50;99.90
14099;DHT22;7126;48.458;7.930;2023-04-03T17:29:05;9.60;99.90
14099;DHT22;7126;48.458;7.930;2023-04-03T17:31:31;9.60;99.90
14099;DHT22;7126;48.458;7.930;2023-04-03T17:33:57;9.60;99.90
14099;DHT22;7126;48.458;7.930;2023-04-03T17:36:29;9.60;99.90
14099;DHT22;7126;48.458;7.930;2023-04-03T17:38:54;9.60;99.90
14099;DHT22;7126;48.458;7.930;2023-04-03T17:41:20;9.50;99.90
14099;DHT22;7126;48.458;7.930;2023-04-03T17:43:46;9.40;99.90
14099;DHT22;7126;48.458;7.930;2023-04-03T17:46:12;9.40;99.90
14099;DHT22;7126;48.458;7.930;2023-04-03T17:48:39;9.30;99.90